Time;durP1;ratioP1;P1;durP2;ratioP2;P2;SDS_P1;SDS_P2;PMS_P1;PMS_P2;Temp;Humidity;BMP_temperature;BMP_pressure;BME280_temperature;BME280_humidity;BME280_pressure;Samples;Min_cycle;Max_cycle;Signal;HPM_P1;HPM_P2
2022/11/21 00:01:19;;;;;;;54.73;35.03;;;5.00;99.90;;;;;;5068889;28;20645;-52
2022/11/21 00:03:47;;;;;;;57.20;40.93;;;5.00;99.90;;;;;;5068409;28;20226;-52
2022/11/21 00:06:16;;;;;;;31.90;25.23;;;5.00;99.90;;;;;;5068122;28;20295;-52
2022/11/21 00:08:45;;;;;;;29.43;26.33;;;5.00;99.90;;;;;;5066110;28;20209;-52
2022/11/21 00:11:13;;;;;;;36.57;24.13;;;5.00;99.90;;;;;;5059905;28;20595;-52
2022/11/21 00:13:42;;;;;;;63.77;38.23;;;5.00;99.90;;;;;;5068312;28;20252;-52
2022/11/21 00:16:12;;;;;;;53.23;32.77;;;5.00;99.90;;;;;;5069217;28;20296;-52
2022/11/21 00:18:41;;;;;;;34.87;28.30;;;5.00;99.90;;;;;;5068198;28;20296;-52
2022/11/21 00:21:12;;;;;;;41.73;30.77;;;5.00;99.90;;;;;;5067296;28;20209;-52
2022/11/21 00:23:40;;;;;;;37.13;28.47;;;5.00;99.90;;;;;;5064078;28;20285;-52
2022/11/21 00:26:11;;;;;;;90.13;45.17;;;5.10;99.90;;;;;;5068850;28;20595;-52
2022/11/21 00:28:39;;;;;;;45.40;33.40;;;5.10;99.90;;;;;;5068454;28;20303;-52
2022/11/21 00:31:07;;;;;;;25.80;18.53;;;5.10;99.90;;;;;;5068867;28;20689;-52
2022/11/21 00:33:37;;;;;;;43.90;30.23;;;5.20;99.90;;;;;;5068245;28;20306;-52
2022/11/21 00:36:07;;;;;;;51.53;39.27;;;5.20;99.90;;;;;;5068824;28;20232;-54
2022/11/21 00:38:35;;;;;;;43.77;31.83;;;5.20;99.90;;;;;;5060958;28;20234;-52
2022/11/21 00:41:04;;;;;;;30.67;25.93;;;5.20;99.90;;;;;;5067401;28;20248;-52
2022/11/21 00:43:33;;;;;;;143.00;48.93;;;5.20;99.90;;;;;;5067811;28;20243;-53
2022/11/21 00:46:03;;;;;;;177.40;76.37;;;5.20;99.90;;;;;;5068473;28;20290;-53
2022/11/21 00:48:32;;;;;;;34.37;26.37;;;5.20;99.90;;;;;;5068978;28;20205;-52
2022/11/21 00:51:00;;;;;;;20.13;17.10;;;5.20;99.90;;;;;;5068397;28;20236;-53
2022/11/21 00:53:29;;;;;;;99.30;40.53;;;5.20;99.90;;;;;;5068086;28;20634;-53
2022/11/21 00:55:57;;;;;;;122.57;53.80;;;5.20;99.90;;;;;;5055841;28;20975;-53
2022/11/21 00:58:25;;;;;;;48.80;34.93;;;5.20;99.90;;;;;;5068963;28;20228;-52
2022/11/21 01:01:02;;;;;;;36.17;28.17;;;5.20;99.90;;;;;;5067881;28;20296;-53
2022/11/21 01:03:33;;;;;;;1784.50;289.63;;;5.20;99.90;;;;;;5058947;28;20206;-53
2022/11/21 01:06:04;;;;;;;118.33;61.77;;;5.30;99.90;;;;;;5062487;28;20208;-52
2022/11/21 01:08:34;;;;;;;37.13;28.83;;;5.30;99.90;;;;;;5061865;28;20201;-52
2022/11/21 01:11:03;;;;;;;35.57;24.37;;;5.30;99.90;;;;;;5068753;28;20923;-52
2022/11/21 01:13:31;;;;;;;115.30;31.83;;;5.20;99.90;;;;;;5067427;28;20300;-52
2022/11/21 01:16:05;;;;;;;514.30;107.27;;;5.20;99.90;;;;;;5072642;28;20320;-52
2022/11/21 01:18:33;;;;;;;31.43;26.60;;;5.30;99.90;;;;;;5072510;28;20240;-53
2022/11/21 01:21:01;;;;;;;37.53;25.77;;;5.20;99.90;;;;;;5069366;28;20295;-52
2022/11/21 01:23:29;;;;;;;22.87;19.63;;;5.30;99.90;;;;;;5073556;28;20214;-53
2022/11/21 01:26:01;;;;;;;115.70;35.57;;;5.30;99.90;;;;;;5064818;28;20243;-54
2022/11/21 01:28:29;;;;;;;66.23;35.33;;;5.30;99.90;;;;;;5072141;28;20289;-52
2022/11/21 01:31:05;;;;;;;50.07;31.30;;;5.30;99.90;;;;;;5071894;28;20302;-54
2022/11/21 01:33:34;;;;;;;23.63;18.97;;;5.30;99.90;;;;;;5072072;28;20239;-52
2022/11/21 01:36:10;;;;;;;82.37;35.07;;;5.30;99.90;;;;;;5071204;28;20228;-51
2022/11/21 01:38:38;;;;;;;132.43;44.00;;;5.30;99.90;;;;;;5072046;28;20268;-52
2022/11/21 01:41:07;;;;;;;34.27;19.97;;;5.30;99.90;;;;;;5072510;28;20208;-53
2022/11/21 01:43:35;;;;;;;68.30;27.03;;;5.30;99.90;;;;;;5071104;28;20776;-51
2022/11/21 01:46:11;;;;;;;61.47;38.60;;;5.30;99.90;;;;;;5072152;28;20290;-52
2022/11/21 01:48:45;;;;;;;57.43;42.40;;;5.30;99.90;;;;;;5071880;28;20843;-53
2022/11/21 01:51:19;;;;;;;44.93;32.87;;;5.30;99.90;;;;;;5071602;28;20777;-52
2022/11/21 01:53:53;;;;;;;43.57;27.03;;;5.30;99.90;;;;;;5071553;28;20312;-52
2022/11/21 01:56:22;;;;;;;42.37;29.67;;;5.30;99.90;;;;;;5071610;28;20217;-52
2022/11/21 01:58:52;;;;;;;24.47;19.03;;;5.30;99.90;;;;;;5071638;28;20219;-52
2022/11/21 02:01:22;;;;;;;43.67;30.27;;;5.30;99.90;;;;;;5071679;28;20296;-52
2022/11/21 02:03:53;;;;;;;26.50;14.83;;;5.20;99.90;;;;;;5070482;28;20780;-52
2022/11/21 02:06:21;;;;;;;73.67;42.70;;;5.20;99.90;;;;;;5063887;28;20211;-53
2022/11/21 02:08:49;;;;;;;41.43;30.37;;;5.20;99.90;;;;;;5070029;28;20240;-52
2022/11/21 02:11:26;;;;;;;87.97;50.47;;;5.20;99.90;;;;;;5070744;28;20213;-52
2022/11/21 02:13:55;;;;;;;559.50;135.13;;;5.20;99.90;;;;;;5069879;28;20232;-52
2022/11/21 02:16:26;;;;;;;282.13;94.17;;;5.20;99.90;;;;;;5070320;28;20320;-53
2022/11/21 02:18:54;;;;;;;21.97;14.73;;;5.20;99.90;;;;;;5069822;28;20291;-52
2022/11/21 02:21:29;;;;;;;92.30;54.23;;;5.20;99.90;;;;;;5070774;28;20304;-52
2022/11/21 02:24:04;;;;;;;87.07;33.07;;;5.10;99.90;;;;;;5065597;28;20255;-53
2022/11/21 02:26:34;;;;;;;193.13;62.80;;;5.10;99.90;;;;;;5069289;28;20283;-52
2022/11/21 02:29:02;;;;;;;49.70;28.53;;;5.10;99.90;;;;;;5069751;28;20647;-52
2022/11/21 02:31:30;;;;;;;41.90;28.87;;;5.10;99.90;;;;;;5070090;28;20299;-52
2022/11/21 02:33:58;;;;;;;70.67;44.37;;;5.00;99.90;;;;;;5069484;28;20379;-53
2022/11/21 02:36:39;;;;;;;58.37;41.00;;;5.00;99.90;;;;;;5068620;28;20804;-52
2022/11/21 02:39:09;;;;;;;55.30;31.37;;;5.00;99.90;;;;;;5069636;28;20244;-52
2022/11/21 02:41:46;;;;;;;388.30;99.47;;;5.00;99.90;;;;;;5069193;28;20619;-54
2022/11/21 02:44:20;;;;;;;69.37;43.93;;;4.90;99.90;;;;;;5066789;28;20268;-53
2022/11/21 02:46:50;;;;;;;47.30;31.23;;;4.90;99.90;;;;;;5070249;28;20287;-53
2022/11/21 02:49:24;;;;;;;131.70;50.13;;;4.90;99.90;;;;;;5069385;28;20302;-52
2022/11/21 02:51:52;;;;;;;67.20;41.67;;;4.90;99.90;;;;;;5069552;28;20300;-53
2022/11/21 02:54:20;;;;;;;238.17;64.43;;;4.90;99.90;;;;;;5069540;28;20315;-52
2022/11/21 02:56:49;;;;;;;39.13;28.93;;;4.80;99.90;;;;;;5058379;28;20263;-52
2022/11/21 02:59:17;;;;;;;275.07;63.17;;;4.80;99.90;;;;;;5069184;28;20304;-52
2022/11/21 03:01:46;;;;;;;118.70;45.13;;;4.80;99.90;;;;;;5062723;28;20248;-52
2022/11/21 03:04:14;;;;;;;87.30;53.93;;;4.80;99.90;;;;;;5068597;28;20312;-53
2022/11/21 03:06:42;;;;;;;74.90;55.47;;;4.80;99.90;;;;;;5030815;28;1116892;-52
2022/11/21 03:09:11;;;;;;;34.40;26.27;;;4.80;99.90;;;;;;5070411;28;20296;-52
2022/11/21 03:11:39;;;;;;;43.97;29.60;;;4.80;99.90;;;;;;5070653;28;20264;-53
2022/11/21 03:14:09;;;;;;;69.10;41.30;;;4.80;99.90;;;;;;5069574;28;20264;-52
2022/11/21 03:16:37;;;;;;;57.90;38.00;;;4.80;99.90;;;;;;5070705;28;20311;-52
2022/11/21 03:19:05;;;;;;;45.80;29.43;;;4.90;99.90;;;;;;5069926;28;20209;-53
2022/11/21 03:21:33;;;;;;;75.33;36.87;;;4.90;99.90;;;;;;5056759;28;20303;-53
2022/11/21 03:24:01;;;;;;;50.60;35.97;;;4.90;99.90;;;;;;5069555;28;20228;-53
2022/11/21 03:26:29;;;;;;;95.20;48.17;;;4.90;99.90;;;;;;5059436;28;20226;-53
2022/11/21 03:28:57;;;;;;;82.40;42.47;;;4.90;99.90;;;;;;5070024;28;20316;-53
2022/11/21 03:31:26;;;;;;;40.10;22.53;;;4.80;99.90;;;;;;5070279;28;20307;-52
2022/11/21 03:33:54;;;;;;;58.07;42.33;;;4.80;99.90;;;;;;5069649;28;20320;-53
2022/11/21 03:36:22;;;;;;;61.67;42.00;;;4.80;99.90;;;;;;5069017;28;20307;-52
2022/11/21 03:38:50;;;;;;;57.60;35.33;;;4.90;99.90;;;;;;5064608;28;20698;-52
2022/11/21 03:41:30;;;;;;;49.97;36.63;;;4.90;99.90;;;;;;5069246;28;20289;-51
2022/11/21 03:44:00;;;;;;;41.33;21.67;;;4.90;99.90;;;;;;5058179;28;20769;-51
2022/11/21 03:46:30;;;;;;;70.40;38.77;;;4.90;99.90;;;;;;5070092;28;20239;-56
2022/11/21 03:48:59;;;;;;;33.40;20.90;;;4.90;99.90;;;;;;5069462;28;20213;-53
2022/11/21 03:51:27;;;;;;;25.37;19.83;;;4.90;99.90;;;;;;5069599;28;20207;-52
2022/11/21 03:53:55;;;;;;;35.93;26.77;;;4.90;99.90;;;;;;5069379;28;20240;-52
2022/11/21 03:56:23;;;;;;;55.20;36.27;;;4.90;99.90;;;;;;5069710;28;20769;-52
2022/11/21 03:58:52;;;;;;;38.40;24.27;;;4.90;99.90;;;;;;5066789;28;20940;-52
2022/11/21 04:01:20;;;;;;;40.60;21.87;;;4.90;99.90;;;;;;5068339;28;20303;-52
2022/11/21 04:03:50;;;;;;;38.63;26.07;;;4.90;99.90;;;;;;5068399;28;20643;-52
2022/11/21 04:06:20;;;;;;;35.30;18.07;;;4.90;99.90;;;;;;5069274;28;20209;-52
2022/11/21 04:08:49;;;;;;;46.33;32.57;;;4.90;99.90;;;;;;5065973;28;20209;-52
2022/11/21 04:11:17;;;;;;;50.87;32.80;;;4.90;99.90;;;;;;5069688;28;20228;-52
2022/11/21 04:13:45;;;;;;;53.77;31.87;;;4.90;99.90;;;;;;5068128;28;20324;-52
2022/11/21 04:16:13;;;;;;;52.57;35.77;;;4.90;99.90;;;;;;5064872;28;20267;-52
2022/11/21 04:18:41;;;;;;;61.70;36.07;;;4.90;99.90;;;;;;5066008;28;20205;-52
2022/11/21 04:21:10;;;;;;;49.50;32.93;;;4.90;99.90;;;;;;5067477;28;20237;-52
2022/11/21 04:23:39;;;;;;;74.20;33.90;;;4.80;99.90;;;;;;5068510;28;20323;-52
2022/11/21 04:26:07;;;;;;;40.20;28.47;;;4.80;99.90;;;;;;5068916;28;20300;-52
2022/11/21 04:28:35;;;;;;;45.13;31.13;;;4.90;99.90;;;;;;5068888;28;20258;-53
2022/11/21 04:31:04;;;;;;;35.57;20.47;;;4.90;99.90;;;;;;5068405;28;20217;-52
2022/11/21 04:33:37;;;;;;;31.93;18.43;;;4.90;99.90;;;;;;5050836;28;20233;-52
2022/11/21 04:36:07;;;;;;;33.97;23.73;;;4.90;99.90;;;;;;5072211;28;20253;-52
2022/11/21 04:38:36;;;;;;;62.13;26.97;;;4.90;99.90;;;;;;5082327;28;20221;-52
2022/11/21 04:41:04;;;;;;;28.60;13.77;;;4.90;99.90;;;;;;5086866;28;20241;-52
2022/11/21 04:43:33;;;;;;;47.63;30.80;;;4.90;99.90;;;;;;5079600;28;20289;-53
2022/11/21 04:46:01;;;;;;;43.67;28.73;;;4.80;99.90;;;;;;5085678;28;20304;-52
2022/11/21 04:48:29;;;;;;;78.60;40.03;;;4.80;99.90;;;;;;5082553;28;21008;-52
2022/11/21 04:50:57;;;;;;;30.00;17.93;;;4.70;99.90;;;;;;5086628;28;20290;-52
2022/11/21 04:53:25;;;;;;;49.97;30.17;;;4.80;99.90;;;;;;5083247;28;20323;-52
2022/11/21 04:55:54;;;;;;;29.93;20.87;;;4.80;99.90;;;;;;5084881;28;20203;-52
2022/11/21 04:58:22;;;;;;;43.43;27.50;;;4.80;99.90;;;;;;5083919;28;20583;-52
2022/11/21 05:00:50;;;;;;;47.63;17.40;;;4.80;99.90;;;;;;5086040;28;20379;-52
2022/11/21 05:03:18;;;;;;;47.73;38.20;;;4.70;99.90;;;;;;5086968;28;20640;-52
2022/11/21 05:05:47;;;;;;;71.07;23.43;;;4.80;99.90;;;;;;5080441;28;20316;-52
2022/11/21 05:08:15;;;;;;;65.97;43.70;;;4.80;99.90;;;;;;5087400;28;20632;-52
2022/11/21 05:13:30;;;;;;;84.50;54.80;;;4.70;99.90;;;;;;5071857;28;20328;-52
2022/11/21 05:15:58;;;;;;;53.90;26.83;;;4.60;99.90;;;;;;5067944;28;20300;-52
2022/11/21 05:18:26;;;;;;;39.57;32.53;;;4.60;99.90;;;;;;5067860;28;20347;-52
2022/11/21 05:20:54;;;;;;;43.30;29.03;;;4.60;99.90;;;;;;5071088;28;20283;-52
2022/11/21 05:23:23;;;;;;;90.60;50.70;;;4.60;99.90;;;;;;5077920;28;20244;-52
2022/11/21 05:25:51;;;;;;;42.90;29.40;;;4.70;99.90;;;;;;5083670;28;20452;-52
2022/11/21 05:28:19;;;;;;;34.20;19.97;;;4.60;99.90;;;;;;5085411;28;20237;-52
2022/11/21 05:30:48;;;;;;;50.97;36.97;;;4.60;99.90;;;;;;5075499;28;20239;-52
2022/11/21 05:33:16;;;;;;;58.40;30.33;;;4.70;99.90;;;;;;5085319;28;20200;-52
2022/11/21 05:35:44;;;;;;;28.60;18.87;;;4.60;99.90;;;;;;5084786;28;20307;-52
2022/11/21 05:38:13;;;;;;;35.60;20.47;;;4.70;99.90;;;;;;5076845;28;20252;-53
2022/11/21 05:40:41;;;;;;;32.83;17.00;;;4.70;99.90;;;;;;5085515;28;20296;-52
2022/11/21 05:45:58;;;;;;;71.53;37.67;;;4.70;99.90;;;;;;5058818;28;20258;-52
2022/11/21 05:48:26;;;;;;;46.10;32.97;;;4.70;99.90;;;;;;5068807;28;20211;-52
2022/11/21 05:50:55;;;;;;;38.63;28.77;;;4.70;99.90;;;;;;5064950;28;20244;-52
2022/11/21 05:53:23;;;;;;;43.67;29.67;;;4.60;99.90;;;;;;5062952;28;20990;-51
2022/11/21 05:55:51;;;;;;;27.07;17.70;;;4.60;99.90;;;;;;5067038;28;20299;-52
2022/11/21 05:58:19;;;;;;;30.93;18.37;;;4.60;99.90;;;;;;5067692;28;20786;-52
2022/11/21 06:00:47;;;;;;;44.70;30.90;;;4.70;99.90;;;;;;5064234;28;20294;-53
2022/11/21 06:03:27;;;;;;;57.80;29.80;;;4.70;99.90;;;;;;5070415;28;20298;-53
2022/11/21 06:06:00;;;;;;;51.30;32.73;;;4.70;99.90;;;;;;5065928;28;20278;-52
2022/11/21 06:08:31;;;;;;;38.70;28.03;;;4.70;99.90;;;;;;5077217;28;20238;-52
2022/11/21 06:10:59;;;;;;;57.13;42.67;;;4.70;99.90;;;;;;5065497;28;20250;-52
2022/11/21 06:13:27;;;;;;;84.87;65.67;;;4.70;99.90;;;;;;5071101;28;20209;-52
2022/11/21 06:16:00;;;;;;;55.50;37.57;;;4.80;99.90;;;;;;5068521;28;20297;-53
2022/11/21 06:18:32;;;;;;;63.13;42.30;;;4.80;99.90;;;;;;5061245;28;20686;-52
2022/11/21 06:21:04;;;;;;;40.33;26.73;;;4.70;99.90;;;;;;5071068;28;20246;-52
2022/11/21 06:23:33;;;;;;;80.13;47.20;;;4.80;99.90;;;;;;5063647;28;20287;-52
2022/11/21 06:26:02;;;;;;;53.43;30.50;;;4.70;99.90;;;;;;5071832;28;20270;-52
2022/11/21 06:28:32;;;;;;;68.30;30.20;;;4.70;99.90;;;;;;5067326;28;20288;-52
2022/11/21 06:31:03;;;;;;;112.30;74.30;;;4.70;99.90;;;;;;5070126;28;20231;-52
2022/11/21 06:33:33;;;;;;;40.00;32.33;;;4.70;99.90;;;;;;5070272;28;20203;-52
2022/11/21 06:36:02;;;;;;;46.77;31.40;;;4.70;99.90;;;;;;5068434;28;20217;-53
2022/11/21 06:38:31;;;;;;;91.60;54.17;;;4.70;99.90;;;;;;5069691;28;20221;-52
2022/11/21 06:41:03;;;;;;;107.93;60.40;;;4.70;99.90;;;;;;5068508;28;20295;-52
2022/11/21 06:43:31;;;;;;;110.37;55.80;;;4.70;99.90;;;;;;5057024;28;20291;-52
2022/11/21 06:46:02;;;;;;;57.93;45.07;;;4.70;99.90;;;;;;5067309;28;20302;-52
2022/11/21 06:48:30;;;;;;;78.97;54.27;;;4.60;99.90;;;;;;5069817;28;20203;-52
2022/11/21 06:51:05;;;;;;;57.80;42.03;;;4.70;99.90;;;;;;5070219;28;20211;-52
2022/11/21 06:53:33;;;;;;;101.53;48.27;;;4.60;99.90;;;;;;5064706;28;20585;-52
2022/11/21 06:56:02;;;;;;;99.30;54.50;;;4.60;99.90;;;;;;5069774;28;20654;-52
2022/11/21 06:58:30;;;;;;;106.67;56.50;;;4.70;99.90;;;;;;5068610;28;20342;-52
2022/11/21 07:00:58;;;;;;;137.53;57.23;;;4.70;99.90;;;;;;5070071;28;20301;-52
2022/11/21 07:03:26;;;;;;;58.30;30.43;;;4.60;99.90;;;;;;5083131;28;20206;-52
2022/11/21 07:05:58;;;;;;;78.13;47.93;;;4.50;99.90;;;;;;5082986;28;20293;-52
2022/11/21 07:08:28;;;;;;;802.93;242.63;;;4.60;99.90;;;;;;5082046;28;20237;-52
2022/11/21 07:10:56;;;;;;;53.80;39.77;;;4.70;99.90;;;;;;5081379;28;20225;-52
2022/11/21 07:13:44;;;;;;;49.40;34.67;;;4.60;99.90;;;;;;5071541;28;20582;-52
2022/11/21 07:16:14;;;;;;;83.93;45.27;;;4.60;99.90;;;;;;5074019;28;20292;-52
2022/11/21 07:18:43;;;;;;;62.27;42.30;;;4.60;99.90;;;;;;5066028;28;20314;-52
2022/11/21 07:21:11;;;;;;;66.60;43.87;;;4.60;99.90;;;;;;5062808;28;20246;-52
2022/11/21 07:23:40;;;;;;;42.00;24.07;;;4.60;99.90;;;;;;5067986;28;20211;-52
2022/11/21 07:26:10;;;;;;;41.03;24.93;;;4.60;99.90;;;;;;5069791;28;20211;-52
2022/11/21 07:28:38;;;;;;;97.13;37.87;;;4.60;99.90;;;;;;5064054;28;20216;-52
2022/11/21 07:31:09;;;;;;;58.13;39.17;;;4.70;99.90;;;;;;5069488;28;20246;-52
2022/11/21 07:33:43;;;;;;;57.63;35.77;;;4.70;99.90;;;;;;5063409;28;20213;-52
2022/11/21 07:36:11;;;;;;;53.27;27.77;;;4.60;99.90;;;;;;5067087;28;20249;-53
2022/11/21 07:38:41;;;;;;;55.13;36.90;;;4.70;99.90;;;;;;5068258;28;20313;-51
2022/11/21 07:41:09;;;;;;;47.77;32.57;;;4.70;99.90;;;;;;5069774;28;20777;-52
2022/11/21 07:43:37;;;;;;;30.33;14.50;;;4.70;99.90;;;;;;5068159;28;20751;-52
2022/11/21 07:46:05;;;;;;;53.20;36.20;;;4.70;99.90;;;;;;5067955;28;20219;-52
2022/11/21 07:48:33;;;;;;;39.77;24.07;;;4.80;99.90;;;;;;5068106;28;20654;-52
2022/11/21 07:51:04;;;;;;;33.67;23.03;;;4.80;99.90;;;;;;5068174;28;20202;-52
2022/11/21 07:53:32;;;;;;;46.13;31.43;;;4.80;99.90;;;;;;5068364;28;20207;-51
2022/11/21 07:56:02;;;;;;;61.77;38.80;;;4.90;99.90;;;;;;5069433;28;20249;-51
2022/11/21 07:58:30;;;;;;;80.07;42.30;;;4.90;99.90;;;;;;5068457;28;20319;-52
2022/11/21 08:00:58;;;;;;;36.63;20.83;;;4.90;99.90;;;;;;5063040;28;20297;-53
2022/11/21 08:03:26;;;;;;;41.00;29.13;;;4.90;99.90;;;;;;5062413;28;20308;-52
2022/11/21 08:05:54;;;;;;;51.37;39.00;;;4.90;99.90;;;;;;5070303;28;20313;-52
2022/11/21 08:08:22;;;;;;;83.20;38.40;;;4.90;99.90;;;;;;5079536;28;20297;-51
2022/11/21 08:10:50;;;;;;;38.70;25.37;;;4.90;99.90;;;;;;5079634;28;20215;-52
2022/11/21 08:13:20;;;;;;;41.73;30.27;;;4.90;99.90;;;;;;5064101;28;20652;-52
2022/11/21 08:15:48;;;;;;;46.40;29.03;;;4.90;99.90;;;;;;5068955;28;20252;-52
2022/11/21 08:18:18;;;;;;;36.37;22.80;;;5.00;99.90;;;;;;5066440;28;20313;-52
2022/11/21 08:20:47;;;;;;;69.13;44.23;;;5.00;99.90;;;;;;5078429;28;20207;-52
2022/11/21 08:23:15;;;;;;;69.37;42.67;;;5.00;99.90;;;;;;5079015;28;20231;-52
2022/11/21 08:25:44;;;;;;;93.70;57.40;;;5.00;99.90;;;;;;5067988;28;20303;-52
2022/11/21 08:28:13;;;;;;;84.60;41.00;;;5.00;99.90;;;;;;5068329;28;20201;-52
2022/11/21 08:30:43;;;;;;;39.80;22.23;;;5.00;99.90;;;;;;5067259;28;20209;-52
2022/11/21 08:33:11;;;;;;;116.73;50.67;;;5.00;99.90;;;;;;5068400;28;20201;-52
2022/11/21 08:35:41;;;;;;;29.57;18.83;;;5.10;99.90;;;;;;5066672;28;20733;-52
2022/11/21 08:38:09;;;;;;;140.77;58.37;;;5.10;99.90;;;;;;5060728;28;20236;-53
2022/11/21 08:40:37;;;;;;;76.80;27.03;;;5.10;99.90;;;;;;5067618;28;20669;-52
2022/11/21 08:43:07;;;;;;;52.27;34.97;;;5.00;99.90;;;;;;5067638;28;20234;-52
2022/11/21 08:45:37;;;;;;;40.33;20.77;;;5.10;99.90;;;;;;5066547;28;20233;-52
2022/11/21 08:48:11;;;;;;;53.93;34.87;;;5.20;99.90;;;;;;5068348;28;20215;-52
2022/11/21 08:50:39;;;;;;;45.70;27.47;;;5.20;99.90;;;;;;5067382;28;20232;-52
2022/11/21 08:53:07;;;;;;;47.47;28.57;;;5.30;99.90;;;;;;5068266;28;20213;-52
2022/11/21 08:55:35;;;;;;;36.57;24.53;;;5.30;99.90;;;;;;5067385;28;20750;-51
2022/11/21 08:58:03;;;;;;;171.97;72.57;;;5.30;99.90;;;;;;5068302;28;20267;-52
2022/11/21 09:00:31;;;;;;;61.63;33.47;;;5.30;99.90;;;;;;5066890;28;20304;-52
2022/11/21 09:03:03;;;;;;;34.40;18.07;;;5.40;99.90;;;;;;5061844;28;20605;-52
2022/11/21 09:05:33;;;;;;;66.73;39.40;;;5.50;99.90;;;;;;5066545;28;20725;-52
2022/11/21 09:08:01;;;;;;;60.73;29.90;;;5.50;99.90;;;;;;5066742;28;20640;-52
2022/11/21 09:10:29;;;;;;;110.93;59.20;;;5.50;99.90;;;;;;5066680;28;20301;-52
2022/11/21 09:12:58;;;;;;;50.47;31.60;;;5.60;99.90;;;;;;5066462;28;20294;-52
2022/11/21 09:18:12;;;;;;;80.13;33.30;;;5.70;99.90;;;;;;5064063;28;20951;-52
2022/11/21 09:20:43;;;;;;;83.70;44.13;;;5.80;99.90;;;;;;5065060;28;20799;-51
2022/11/21 09:23:14;;;;;;;37.63;24.13;;;5.80;99.90;;;;;;5066887;28;20218;-52
2022/11/21 09:25:42;;;;;;;300.43;143.17;;;5.90;99.90;;;;;;5066473;28;20758;-52
2022/11/21 09:28:11;;;;;;;52.90;32.87;;;5.90;99.90;;;;;;5067772;28;20722;-52
2022/11/21 09:30:40;;;;;;;56.40;38.97;;;6.00;99.90;;;;;;5067013;28;20201;-52
2022/11/21 09:33:11;;;;;;;51.97;29.63;;;6.00;99.90;;;;;;5067883;28;20261;-51
2022/11/21 09:35:41;;;;;;;112.57;50.40;;;5.90;99.90;;;;;;5068409;28;20311;-51
2022/11/21 09:38:09;;;;;;;407.90;172.00;;;6.00;99.90;;;;;;5071659;28;20289;-52
2022/11/21 09:40:43;;;;;;;174.03;67.77;;;6.00;99.90;;;;;;5063704;28;20321;-52
2022/11/21 09:43:25;;;;;;;86.87;40.57;;;6.10;99.90;;;;;;5070367;28;20299;-52
2022/11/21 09:46:01;;;;;;;86.47;31.97;;;6.10;99.90;;;;;;5064351;28;20624;-52
2022/11/21 09:48:34;;;;;;;66.73;33.23;;;6.00;99.90;;;;;;5066900;28;20198;-52
2022/11/21 09:51:09;;;;;;;93.57;49.23;;;6.00;99.90;;;;;;5064364;28;20208;-52
2022/11/21 09:53:51;;;;;;;71.77;26.83;;;6.00;99.90;;;;;;5071536;28;20294;-52
2022/11/21 09:56:22;;;;;;;45.87;31.30;;;6.00;99.90;;;;;;5070602;28;20212;-52
2022/11/21 09:59:06;;;;;;;101.83;40.63;;;6.00;99.90;;;;;;5061572;28;20210;-52
2022/11/21 10:01:36;;;;;;;34.20;23.43;;;6.10;99.90;;;;;;5070668;28;20212;-52
2022/11/21 10:04:04;;;;;;;28.53;19.40;;;6.20;99.90;;;;;;5071032;28;20306;-52
2022/11/21 10:06:42;;;;;;;1015.70;225.57;;;6.30;99.90;;;;;;5070744;28;20604;-52
2022/11/21 10:09:25;;;;;;;59.77;35.00;;;6.40;99.90;;;;;;5071708;28;20213;-52
2022/11/21 10:15:03;;;;;;;55.93;37.93;;;6.40;99.90;;;;;;5060698;28;20232;-52
2022/11/21 10:17:41;;;;;;;126.03;52.03;;;6.40;99.90;;;;;;5070739;28;20739;-52
2022/11/21 10:20:26;;;;;;;44.27;28.83;;;6.20;99.90;;;;;;5070865;28;20227;-52
2022/11/21 10:23:11;;;;;;;243.23;117.30;;;6.20;99.90;;;;;;5064647;28;20255;-52
2022/11/21 10:25:43;;;;;;;46.33;34.73;;;6.20;99.90;;;;;;5066214;28;20287;-52
2022/11/21 10:28:18;;;;;;;40.43;24.70;;;6.20;99.90;;;;;;5070126;28;20290;-52
2022/11/21 10:30:51;;;;;;;138.23;55.70;;;6.20;99.90;;;;;;5084530;28;20737;-52
2022/11/21 10:33:26;;;;;;;38.43;25.87;;;6.30;99.90;;;;;;5070385;28;20209;-52
2022/11/21 10:35:58;;;;;;;35.23;22.30;;;6.30;99.90;;;;;;5069807;28;20704;-52
2022/11/21 10:38:29;;;;;;;87.03;32.80;;;6.40;99.90;;;;;;5070078;28;20238;-52
2022/11/21 10:41:04;;;;;;;53.93;21.13;;;6.50;99.90;;;;;;5070047;28;20319;-52
2022/11/21 10:46:25;;;;;;;138.83;53.40;;;6.60;99.90;;;;;;5065501;28;20198;-52
2022/11/21 10:48:58;;;;;;;266.23;106.10;;;6.60;99.90;;;;;;5069724;28;20324;-52
2022/11/21 10:51:37;;;;;;;147.50;47.47;;;6.60;99.90;;;;;;5070292;28;20700;-52
2022/11/21 10:56:59;;;;;;;418.00;102.40;;;6.70;99.90;;;;;;5070728;28;20209;-52
2022/11/21 10:59:29;;;;;;;479.57;180.37;;;6.80;99.90;;;;;;5068768;28;20243;-52
2022/11/21 11:02:00;;;;;;;310.83;83.23;;;6.80;99.90;;;;;;5069960;28;20584;-52
2022/11/21 11:04:30;;;;;;;119.87;45.50;;;6.80;99.90;;;;;;5063850;28;20249;-52
2022/11/21 11:07:22;;;;;;;125.10;40.23;;;6.80;99.90;;;;;;5066788;28;20216;-52
2022/11/21 11:09:53;;;;;;;641.63;129.20;;;7.00;99.90;;;;;;5069838;28;20219;-52
2022/11/21 11:15:21;;;;;;;145.37;51.33;;;7.10;99.90;;;;;;5069539;28;20316;-52
2022/11/21 11:17:53;;;;;;;122.47;47.80;;;7.10;99.90;;;;;;5071347;28;20297;-52
2022/11/21 11:20:34;;;;;;;181.50;65.93;;;7.10;99.90;;;;;;5069400;28;20315;-52
2022/11/21 11:23:17;;;;;;;142.17;68.30;;;7.20;99.90;;;;;;5070154;28;20290;-52
2022/11/21 11:25:49;;;;;;;509.73;136.67;;;7.20;99.90;;;;;;5062342;28;20304;-52
2022/11/21 11:28:19;;;;;;;395.07;125.90;;;7.10;99.90;;;;;;5070206;28;20219;-52
2022/11/21 11:30:49;;;;;;;545.50;111.70;;;7.00;99.90;;;;;;5069637;28;20241;-52
2022/11/21 11:33:31;;;;;;;344.20;89.37;;;7.00;99.90;;;;;;5064746;28;20247;-52
2022/11/21 11:36:11;;;;;;;428.90;191.97;;;7.10;99.90;;;;;;5067402;28;20213;-52
2022/11/21 11:38:42;;;;;;;81.20;44.03;;;7.20;99.90;;;;;;5068909;28;20642;-52
2022/11/21 11:41:24;;;;;;;261.20;83.63;;;7.30;99.90;;;;;;5068297;28;20278;-52
2022/11/21 11:52:42;;;;;;;180.03;62.43;;;7.30;99.90;;;;;;5058155;28;20247;-52
2022/11/21 11:55:19;;;;;;;266.00;84.20;;;7.40;99.90;;;;;;5069692;28;20361;-52
2022/11/21 11:57:52;;;;;;;107.33;45.63;;;7.40;99.90;;;;;;5068988;28;20325;-52
2022/11/21 12:00:30;;;;;;;453.67;169.20;;;7.30;99.90;;;;;;5068384;28;20223;-52
2022/11/21 12:03:04;;;;;;;1156.67;257.93;;;7.20;99.90;;;;;;5062917;28;20278;-52
2022/11/21 12:05:32;;;;;;;159.10;76.63;;;7.30;99.90;;;;;;5067815;28;20254;-52
2022/11/21 12:08:10;;;;;;;240.90;72.80;;;7.40;99.90;;;;;;5059517;28;20300;-52
2022/11/21 12:13:57;;;;;;;1134.40;241.10;;;7.50;99.90;;;;;;5067781;28;20311;-53
2022/11/21 12:16:25;;;;;;;283.10;87.80;;;7.50;99.90;;;;;;5068174;28;20213;-53
2022/11/21 12:18:58;;;;;;;207.37;77.57;;;7.50;99.90;;;;;;5068078;28;20713;-52
2022/11/21 12:21:27;;;;;;;526.40;184.17;;;7.60;99.90;;;;;;5053999;28;20232;-52
2022/11/21 12:23:57;;;;;;;215.17;62.47;;;7.60;99.90;;;;;;5067507;28;20315;-54
2022/11/21 12:26:45;;;;;;;270.27;85.33;;;7.70;99.90;;;;;;5067528;28;20315;-53
2022/11/21 12:29:36;;;;;;;190.73;61.97;;;7.70;99.90;;;;;;5068511;28;20212;-52
2022/11/21 12:32:19;;;;;;;332.43;88.13;;;7.60;99.90;;;;;;5061947;28;20644;-52
2022/11/21 12:35:02;;;;;;;431.43;151.67;;;7.50;99.90;;;;;;5066946;28;20268;-53
2022/11/21 12:37:39;;;;;;;49.20;34.20;;;7.50;99.90;;;;;;5067969;28;20331;-52
2022/11/21 12:40:22;;;;;;;556.77;173.63;;;7.50;99.90;;;;;;5068309;28;20283;-52
2022/11/21 12:43:04;;;;;;;145.67;59.33;;;7.40;99.90;;;;;;5065859;28;20300;-53
2022/11/21 12:45:36;;;;;;;423.90;77.57;;;7.50;99.90;;;;;;5067317;28;20358;-53
2022/11/21 12:54:46;;;;;;;214.63;56.00;;;7.80;99.90;;;;;;5057110;28;20232;-52
2022/11/21 12:57:15;;;;;;;560.77;232.73;;;7.60;99.90;;;;;;5067995;28;20211;-53
2022/11/21 12:59:52;;;;;;;332.50;131.13;;;7.60;99.90;;;;;;5068861;28;20303;-52
2022/11/21 13:02:35;;;;;;;104.57;46.37;;;7.50;99.90;;;;;;5067486;28;20319;-53
2022/11/21 13:05:05;;;;;;;118.73;48.90;;;7.50;99.90;;;;;;5068292;28;20271;-53
2022/11/21 13:07:34;;;;;;;91.00;49.67;;;7.50;99.90;;;;;;5058452;28;20239;-52
2022/11/21 13:10:04;;;;;;;162.47;47.97;;;7.30;99.90;;;;;;5069563;28;20219;-52
2022/11/21 13:12:44;;;;;;;386.63;124.40;;;7.30;99.90;;;;;;5060866;28;20250;-53
2022/11/21 13:15:24;;;;;;;22.23;19.67;;;7.30;99.90;;;;;;5072288;28;20712;-53
2022/11/21 13:17:56;;;;;;;307.20;81.93;;;7.30;99.90;;;;;;5071785;28;20298;-53
2022/11/21 13:20:30;;;;;;;333.50;110.80;;;7.30;99.90;;;;;;5071941;28;20196;-52
2022/11/21 13:23:00;;;;;;;24.73;18.03;;;7.30;99.90;;;;;;5071542;28;20303;-52
2022/11/21 13:25:45;;;;;;;30.23;16.73;;;7.20;99.90;;;;;;5068972;28;20259;-52
2022/11/21 13:28:36;;;;;;;36.30;22.70;;;7.20;99.90;;;;;;5071474;28;20212;-53
2022/11/21 13:31:29;;;;;;;278.87;118.00;;;7.20;99.90;;;;;;5067286;28;20200;-53